Time;durP1;ratioP1;P1;durP2;ratioP2;P2;SDS_P1;SDS_P2;PMS_P1;PMS_P2;Temp;Humidity;BMP_temperature;BMP_pressure;BME280_temperature;BME280_humidity;BME280_pressure;Samples;Min_cycle;Max_cycle;Signal;HPM_P1;HPM_P2
2022/09/01 00:00:47;;;;;;;9.30;7.20;;;;;;;16.99;74.71;92907.75;2068045;69;20452;-75
2022/09/01 00:03:15;;;;;;;8.98;6.60;;;;;;;17.01;74.51;92905.75;2071299;69;20156;-75
2022/09/01 00:05:41;;;;;;;9.45;6.38;;;;;;;17.35;70.99;92907.75;2067880;69;20132;-75
2022/09/01 00:08:07;;;;;;;7.82;6.60;;;;;;;17.16;73.08;92909.16;2071532;69;20217;-74
2022/09/01 00:10:32;;;;;;;7.70;6.50;;;;;;;17.24;73.54;92915.16;2071121;69;20237;-75
2022/09/01 00:12:58;;;;;;;7.97;6.95;;;;;;;17.30;72.85;92912.56;2071217;69;20882;-75
2022/09/01 00:15:24;;;;;;;9.75;6.80;;;;;;;17.18;73.14;92909.22;2071194;69;20547;-76
2022/09/01 00:17:50;;;;;;;9.10;7.25;;;;;;;16.90;76.07;92903.13;2068148;69;20676;-76
2022/09/01 00:20:16;;;;;;;11.07;8.35;;;;;;;16.67;77.09;92907.88;2071250;69;20164;-75
2022/09/01 00:22:41;;;;;;;11.23;7.25;;;;;;;16.42;78.66;92908.97;2071490;69;20141;-75
2022/09/01 00:25:08;;;;;;;12.23;6.80;;;;;;;16.61;77.89;92904.78;2071501;69;20149;-75
2022/09/01 00:27:34;;;;;;;8.43;6.82;;;;;;;17.06;74.79;92912.31;2070837;69;20532;-74
2022/09/01 00:30:00;;;;;;;8.98;6.28;;;;;;;17.16;74.43;92906.31;2071202;69;20627;-74
2022/09/01 00:32:26;;;;;;;8.35;6.50;;;;;;;17.20;73.90;92907.19;2071367;69;20155;-75
2022/09/01 00:34:52;;;;;;;7.80;6.57;;;;;;;17.24;73.22;92901.66;2070839;69;20264;-75
2022/09/01 00:37:18;;;;;;;9.15;6.72;;;;;;;17.30;73.96;92901.16;2068055;69;20214;-76
2022/09/01 00:39:43;;;;;;;9.27;6.85;;;;;;;17.27;74.33;92902.47;2065276;69;20259;-76
2022/09/01 00:42:09;;;;;;;7.85;6.55;;;;;;;17.26;73.99;92901.75;2071498;69;20256;-74
2022/09/01 00:44:35;;;;;;;9.07;6.80;;;;;;;17.09;75.19;92893.22;2071570;69;20156;-75
2022/09/01 00:47:02;;;;;;;10.23;6.85;;;;;;;17.23;72.30;92897.38;2068247;69;20184;-75
2022/09/01 00:49:34;;;;;;;10.38;7.80;;;;;;;16.79;75.10;92893.47;2071582;69;20147;-75
2022/09/01 00:52:18;;;;;;;10.60;7.78;;;;;;;16.59;76.25;92889.78;2071326;69;20244;-75
2022/09/01 00:54:52;;;;;;;11.57;7.20;;;;;;;16.77;76.00;92896.22;2071547;69;20495;-75
2022/09/01 00:57:18;;;;;;;11.10;7.43;;;;;;;17.10;73.89;92891.84;2071508;69;20216;-75
2022/09/01 01:00:10;;;;;;;8.65;7.38;;;;;;;16.97;75.33;92882.81;2067974;69;20235;-76
2022/09/01 01:02:37;;;;;;;10.02;7.60;;;;;;;16.86;75.59;92883.81;2071526;69;20168;-75
2022/09/01 01:05:05;;;;;;;10.82;7.45;;;;;;;16.87;75.79;92893.78;2071285;69;20152;-75
2022/09/01 01:07:35;;;;;;;11.45;7.75;;;;;;;16.59;77.25;92893.34;2068113;69;20144;-75
2022/09/01 01:10:04;;;;;;;9.68;7.97;;;;;;;16.43;78.11;92882.00;2071439;69;20140;-74
2022/09/01 01:12:30;;;;;;;11.18;8.10;;;;;;;16.23;79.90;92881.88;2067958;69;20144;-75
2022/09/01 01:14:55;;;;;;;11.85;9.02;;;;;;;16.44;78.12;92886.31;2071510;69;20148;-75
2022/09/01 01:17:22;;;;;;;10.45;8.15;;;;;;;16.62;77.64;92885.63;2071481;69;20198;-74
2022/09/01 01:23:09;;;;;;;9.73;7.53;;;;;;;17.02;75.26;92878.03;2067998;69;20168;-75
2022/09/01 01:25:41;;;;;;;10.52;8.07;;;;;;;17.05;74.25;92885.28;2060798;69;20143;-75
2022/09/01 01:28:09;;;;;;;8.80;7.65;;;;;;;16.52;77.37;92877.41;2067942;69;20140;-75
2022/09/01 01:30:38;;;;;;;8.70;7.40;;;;;;;16.86;75.76;92874.53;2068049;69;20268;-75
2022/09/01 01:33:05;;;;;;;8.18;6.85;;;;;;;16.91;75.47;92865.53;2068030;69;20141;-75
2022/09/01 01:35:32;;;;;;;9.15;7.68;;;;;;;16.70;75.91;92872.47;2067884;69;20144;-75
2022/09/01 01:38:00;;;;;;;9.45;7.68;;;;;;;16.70;76.52;92872.47;2071363;69;20147;-75
2022/09/01 01:40:28;;;;;;;10.27;7.30;;;;;;;17.00;73.86;92866.59;2067882;69;20150;-75
2022/09/01 01:42:55;;;;;;;11.55;7.40;;;;;;;17.05;73.50;92870.31;2071217;69;20137;-74
2022/09/01 01:45:24;;;;;;;8.85;7.68;;;;;;;17.03;74.24;92882.34;2067988;69;20615;-74
2022/09/01 01:47:52;;;;;;;12.43;7.38;;;;;;;16.89;74.68;92878.91;2064597;69;20141;-74
2022/09/01 01:50:34;;;;;;;8.60;7.40;;;;;;;16.99;74.38;92876.47;2067437;69;20176;-75
2022/09/01 01:53:03;;;;;;;10.10;7.65;;;;;;;17.16;72.18;92875.75;2067781;69;20227;-74
2022/09/01 01:55:29;;;;;;;9.80;7.90;;;;;;;17.12;73.33;92869.91;2071305;69;20175;-74
2022/09/01 01:57:58;;;;;;;10.48;7.85;;;;;;;17.09;74.02;92870.47;2067833;69;20201;-75
2022/09/01 02:00:33;;;;;;;8.23;7.25;;;;;;;17.10;73.33;92872.66;2071221;69;20241;-75
2022/09/01 02:02:58;;;;;;;8.93;6.65;;;;;;;17.19;71.75;92870.88;2068043;69;20156;-75
2022/09/01 02:05:30;;;;;;;9.18;7.72;;;;;;;17.10;73.42;92874.78;2071094;69;20155;-75
2022/09/01 02:08:06;;;;;;;9.32;7.97;;;;;;;16.91;74.18;92876.19;2067924;69;20247;-76
2022/09/01 02:10:40;;;;;;;10.18;7.53;;;;;;;17.04;73.58;92878.09;2067792;69;20148;-75
2022/09/01 02:13:10;;;;;;;10.93;7.60;;;;;;;17.13;73.79;92873.47;2067902;69;20529;-74
2022/09/01 02:15:43;;;;;;;9.75;6.95;;;;;;;17.12;73.07;92869.91;2067618;69;20156;-75
2022/09/01 02:18:18;;;;;;;10.77;6.88;;;;;;;17.25;70.59;92871.09;2071491;69;20155;-74
2022/09/01 02:20:46;;;;;;;9.80;8.00;;;;;;;17.26;71.08;92869.72;2067798;69;20206;-74
2022/09/01 02:23:14;;;;;;;10.48;8.13;;;;;;;17.08;72.46;92874.69;2067922;69;20159;-74
2022/09/01 02:25:44;;;;;;;9.55;7.55;;;;;;;17.02;73.10;92875.19;2064551;69;20159;-74
2022/09/01 02:28:16;;;;;;;13.50;7.95;;;;;;;17.16;72.29;92872.91;2068345;69;20248;-74
2022/09/01 02:30:44;;;;;;;11.13;8.50;;;;;;;16.99;73.44;92867.94;2065289;69;20136;-75
2022/09/01 02:33:17;;;;;;;11.30;8.52;;;;;;;16.91;74.88;92865.53;2067907;69;20152;-74
2022/09/01 02:35:51;;;;;;;10.45;8.05;;;;;;;17.00;73.20;92863.75;2067754;69;20566;-74
2022/09/01 02:38:19;;;;;;;9.40;8.13;;;;;;;16.71;76.00;92873.19;2067712;69;20144;-75
2022/09/01 02:40:46;;;;;;;10.25;8.73;;;;;;;16.22;78.57;92865.50;2067871;69;20196;-75
2022/09/01 02:43:19;;;;;;;11.38;9.45;;;;;;;16.38;78.18;92871.13;2067832;69;20163;-74
2022/09/01 02:45:50;;;;;;;16.65;9.20;;;;;;;16.49;77.23;92873.75;2067880;69;20243;-74
2022/09/01 02:48:17;;;;;;;12.15;9.52;;;;;;;16.50;77.83;92872.38;2067829;69;20155;-73
2022/09/01 02:50:43;;;;;;;12.18;9.60;;;;;;;16.57;76.34;92864.81;2067683;69;20132;-74
2022/09/01 02:53:10;;;;;;;10.35;8.85;;;;;;;16.51;77.50;92870.25;2067816;69;20143;-74
2022/09/01 02:55:38;;;;;;;11.38;9.10;;;;;;;16.43;77.95;92867.81;2067865;69;20175;-74
2022/09/01 02:58:09;;;;;;;11.65;9.55;;;;;;;16.51;77.74;92867.41;2067621;69;20605;-74
2022/09/01 03:00:38;;;;;;;11.25;9.48;;;;;;;16.63;76.87;92872.84;2067781;69;20159;-74
2022/09/01 03:03:06;;;;;;;13.25;9.50;;;;;;;16.40;77.25;92866.28;2067915;69;20186;-74
2022/09/01 03:05:34;;;;;;;10.45;8.68;;;;;;;16.74;74.75;92854.88;2067714;69;20136;-74
2022/09/01 03:08:06;;;;;;;12.90;8.43;;;;;;;16.87;74.59;92850.41;2064902;69;20179;-74
2022/09/01 03:10:35;;;;;;;13.25;9.80;;;;;;;16.65;75.67;92853.06;2065115;69;20144;-75
2022/09/01 03:13:17;;;;;;;11.73;9.40;;;;;;;16.63;74.81;92862.25;2067834;69;20168;-75
2022/09/01 03:15:43;;;;;;;14.13;10.07;;;;;;;16.36;77.65;92857.56;2071158;69;20223;-75
2022/09/01 03:18:11;;;;;;;11.15;8.98;;;;;;;16.70;75.49;92857.53;2067690;69;20156;-75
2022/09/01 03:20:41;;;;;;;12.73;9.07;;;;;;;16.75;75.73;92857.06;2067834;69;20348;-74
2022/09/01 03:23:09;;;;;;;12.13;9.55;;;;;;;16.79;75.30;92850.81;2067920;69;20172;-75
2022/09/01 03:25:40;;;;;;;12.38;9.77;;;;;;;16.93;74.40;92850.66;2067976;69;20155;-75
2022/09/01 03:28:09;;;;;;;11.98;9.02;;;;;;;16.88;74.92;92851.88;2067521;69;20247;-75
2022/09/01 03:30:41;;;;;;;10.75;9.52;;;;;;;16.93;74.74;92856.34;2067754;69;20163;-74
2022/09/01 03:33:06;;;;;;;12.35;10.30;;;;;;;16.41;77.60;92850.69;2065197;69;20143;-75
2022/09/01 03:35:32;;;;;;;13.35;10.15;;;;;;;16.84;74.45;92851.72;2067673;69;20156;-74
2022/09/01 03:38:00;;;;;;;14.18;11.07;;;;;;;16.22;77.23;92851.31;2071022;69;20622;-74
2022/09/01 03:40:31;;;;;;;12.75;10.13;;;;;;;16.50;77.26;92849.63;2067671;69;20266;-74
2022/09/01 03:42:58;;;;;;;13.07;10.90;;;;;;;16.44;76.93;92849.38;2067853;69;20610;-74
2022/09/01 03:45:25;;;;;;;16.42;10.95;;;;;;;16.39;77.00;92852.69;2071200;69;20136;-74
2022/09/01 03:47:53;;;;;;;15.82;11.93;;;;;;;16.44;77.23;92848.63;2070994;69;20146;-74
2022/09/01 03:50:23;;;;;;;13.65;10.85;;;;;;;16.70;76.34;92849.72;2067717;69;20152;-74
2022/09/01 03:52:58;;;;;;;14.27;11.40;;;;;;;16.59;76.36;92838.63;2067660;69;20203;-75
2022/09/01 03:55:29;;;;;;;14.00;11.18;;;;;;;16.74;75.51;92844.25;2067705;69;20163;-75
2022/09/01 03:58:00;;;;;;;15.23;11.63;;;;;;;16.73;75.34;92833.53;2071126;69;20244;-74
2022/09/01 04:00:28;;;;;;;13.00;11.02;;;;;;;16.84;74.57;92837.50;2067759;69;20557;-75
2022/09/01 04:02:57;;;;;;;14.32;11.43;;;;;;;16.86;74.79;92834.72;2064532;69;20254;-74
2022/09/01 04:05:27;;;;;;;12.98;11.50;;;;;;;16.89;75.29;92834.16;2064357;69;20520;-74
2022/09/01 04:07:57;;;;;;;14.93;11.63;;;;;;;16.85;75.59;92830.41;2064410;69;20226;-75
2022/09/01 04:10:24;;;;;;;14.00;11.70;;;;;;;16.86;75.50;92829.03;2067829;69;20215;-75
2022/09/01 04:12:50;;;;;;;15.52;11.57;;;;;;;16.90;75.24;92834.88;2064314;69;20176;-75
2022/09/01 04:15:17;;;;;;;15.27;11.05;;;;;;;16.91;75.28;92839.22;2064303;69;20145;-75
2022/09/01 04:18:08;;;;;;;13.95;10.73;;;;;;;16.85;76.10;92830.41;2067112;69;20160;-75
2022/09/01 04:20:46;;;;;;;13.25;10.73;;;;;;;16.91;73.75;92828.56;2067585;69;20160;-75
2022/09/01 04:23:28;;;;;;;14.65;10.65;;;;;;;16.83;76.08;92828.25;2071082;69;20144;-75
2022/09/01 04:25:58;;;;;;;14.48;11.50;;;;;;;16.87;75.25;92824.84;2067707;69;20180;-76
2022/09/01 04:28:32;;;;;;;14.77;11.20;;;;;;;16.84;75.82;92826.84;2064859;69;20239;-75
2022/09/01 04:31:04;;;;;;;14.20;11.55;;;;;;;16.84;75.14;92814.75;2067678;69;20148;-74
2022/09/01 04:33:36;;;;;;;12.95;10.95;;;;;;;16.94;73.74;92820.84;2067305;69;20198;-75
2022/09/01 04:36:05;;;;;;;14.20;10.77;;;;;;;16.92;75.10;92823.59;2067642;69;20188;-74
2022/09/01 04:38:34;;;;;;;12.65;10.43;;;;;;;16.86;76.07;92824.09;2070625;69;20174;-74
2022/09/01 04:41:08;;;;;;;12.25;10.77;;;;;;;16.90;75.64;92823.50;2068275;69;20214;-74
2022/09/01 04:43:34;;;;;;;14.40;10.65;;;;;;;16.86;75.98;92829.78;2071706;69;20202;-75
2022/09/01 04:46:02;;;;;;;16.25;12.18;;;;;;;16.81;76.69;92833.09;2062422;69;20160;-75
2022/09/01 04:48:28;;;;;;;16.50;11.23;;;;;;;16.86;75.60;92814.81;2067560;69;20172;-75
2022/09/01 04:50:55;;;;;;;15.50;11.77;;;;;;;16.88;74.75;92820.59;2071547;69;20279;-75
2022/09/01 04:53:47;;;;;;;15.73;11.18;;;;;;;16.91;73.98;92825.72;2070967;69;20538;-75
2022/09/01 04:56:22;;;;;;;13.02;10.73;;;;;;;16.99;75.09;92828.13;2071532;69;20275;-75
2022/09/01 04:59:06;;;;;;;15.25;11.30;;;;;;;16.88;75.81;92823.44;2066304;69;20156;-75
2022/09/01 05:01:42;;;;;;;16.90;11.40;;;;;;;16.92;75.72;92826.44;2068086;69;20151;-75
2022/09/01 05:04:11;;;;;;;13.40;11.93;;;;;;;16.94;75.74;92823.69;2068190;69;20156;-74
2022/09/01 05:06:41;;;;;;;15.23;11.57;;;;;;;16.94;74.71;92818.72;2067895;69;20180;-74
2022/09/01 05:09:10;;;;;;;15.07;11.48;;;;;;;16.94;75.54;92835.03;2068121;69;20175;-75
2022/09/01 05:11:56;;;;;;;16.90;10.80;;;;;;;17.03;74.76;92825.44;2071022;69;20214;-75
2022/09/01 05:14:27;;;;;;;;;;;;;;;16.96;76.66;92829.47;2068366;69;20225;-74
2022/09/01 05:16:57;;;;;;;14.18;10.93;;;;;;;17.01;75.67;92837.50;2068063;69;20056;-75
2022/09/01 05:19:28;;;;;;;12.85;11.18;;;;;;;16.98;75.81;92835.94;2067781;69;20180;-75
2022/09/01 05:21:59;;;;;;;15.15;12.38;;;;;;;17.00;75.00;92833.19;2063917;69;20156;-75
2022/09/01 05:24:29;;;;;;;13.07;10.40;;;;;;;17.14;72.33;92835.13;2067586;69;20171;-74
2022/09/01 05:26:59;;;;;;;14.20;12.25;;;;;;;17.16;72.32;92835.91;2067551;69;20608;-73
2022/09/01 05:29:26;;;;;;;17.35;12.77;;;;;;;17.12;74.13;92838.59;2067919;69;20221;-75
2022/09/01 05:31:54;;;;;;;15.65;12.63;;;;;;;17.14;74.17;92835.84;2067787;69;20159;-74
2022/09/01 05:34:25;;;;;;;19.92;14.85;;;;;;;16.22;78.99;92839.94;2067372;69;20207;-75
2022/09/01 05:36:56;;;;;;;15.03;12.93;;;;;;;16.67;76.66;92838.91;2067372;69;20172;-75
2022/09/01 05:39:23;;;;;;;14.57;12.00;;;;;;;17.02;73.08;92827.56;2067756;69;20195;-76
2022/09/01 05:41:51;;;;;;;17.95;12.85;;;;;;;17.00;74.13;92838.16;2067959;69;20160;-76
2022/09/01 05:44:17;;;;;;;17.00;13.82;;;;;;;16.77;74.43;92837.25;2064528;69;20148;-75
2022/09/01 05:46:43;;;;;;;19.67;14.23;;;;;;;16.86;73.62;92837.56;2067758;69;20625;-76
2022/09/01 05:49:14;;;;;;;19.90;14.63;;;;;;;16.63;76.34;92833.81;2068010;69;20227;-76
2022/09/01 05:51:42;;;;;;;19.73;13.73;;;;;;;16.97;73.78;92837.31;2067540;69;20228;-76
2022/09/01 05:54:09;;;;;;;17.10;12.80;;;;;;;17.09;72.94;92831.41;2067936;69;20602;-76
2022/09/01 05:56:39;;;;;;;18.42;13.25;;;;;;;17.16;72.52;92824.53;2067918;69;20255;-76
2022/09/01 05:59:05;;;;;;;21.13;13.63;;;;;;;17.01;72.82;92828.22;2071329;69;20147;-77
2022/09/01 06:01:32;;;;;;;18.25;13.90;;;;;;;16.54;77.97;92837.72;2064964;69;20140;-76
2022/09/01 06:04:03;;;;;;;20.50;15.82;;;;;;;16.17;80.57;92836.19;2067960;69;20164;-76
2022/09/01 06:06:48;;;;;;;23.23;16.63;;;;;;;16.50;78.89;92834.69;2067826;69;20156;-77
2022/09/01 06:09:17;;;;;;;25.77;15.88;;;;;;;16.54;78.39;92840.56;2067872;69;20149;-75
2022/09/01 06:11:45;;;;;;;17.70;14.57;;;;;;;16.65;77.71;92836.00;2064502;69;20152;-76
2022/09/01 06:14:15;;;;;;;20.33;15.52;;;;;;;16.43;79.07;92833.72;2069213;69;20625;-76
2022/09/01 06:16:46;;;;;;;21.23;16.02;;;;;;;16.44;79.36;92837.28;2067817;69;20160;-76
2022/09/01 06:19:13;;;;;;;22.33;16.70;;;;;;;16.66;78.11;92846.72;2067617;69;20559;-75
2022/09/01 06:21:42;;;;;;;21.83;15.13;;;;;;;16.68;77.80;92838.28;2067832;69;20156;-75
2022/09/01 06:24:08;;;;;;;18.67;14.40;;;;;;;16.61;78.06;92842.25;2067747;69;20492;-75
2022/09/01 06:26:37;;;;;;;19.95;13.73;;;;;;;16.93;75.72;92844.97;2067750;69;20148;-75
2022/09/01 06:29:08;;;;;;;19.20;14.48;;;;;;;16.73;76.57;92842.78;2064622;69;20162;-76
2022/09/01 06:31:38;;;;;;;17.77;14.02;;;;;;;16.76;76.52;92843.56;2065178;69;20155;-76
2022/09/01 06:34:16;;;;;;;20.00;13.93;;;;;;;16.86;75.26;92840.41;2071189;69;20203;-75
2022/09/01 06:36:47;;;;;;;19.52;13.80;;;;;;;16.64;76.89;92835.28;2067814;69;20156;-76
2022/09/01 06:39:20;;;;;;;19.13;13.95;;;;;;;16.41;78.14;92841.44;2067932;69;20548;-75
2022/09/01 06:41:51;;;;;;;16.80;13.70;;;;;;;16.67;77.85;92853.84;2065169;69;20250;-75
2022/09/01 06:44:23;;;;;;;17.88;13.00;;;;;;;16.77;76.68;92845.06;2067862;69;20188;-76
2022/09/01 06:47:06;;;;;;;17.80;13.77;;;;;;;16.84;77.54;92848.88;2067855;69;20557;-75
2022/09/01 06:49:33;;;;;;;19.20;13.40;;;;;;;17.06;76.38;92838.38;2064490;69;20148;-77
2022/09/01 06:52:03;;;;;;;16.23;14.10;;;;;;;16.72;77.02;92843.41;2064453;69;20496;-78
2022/09/01 06:54:34;;;;;;;19.25;14.18;;;;;;;16.35;79.30;92846.84;2067526;69;20213;-76
2022/09/01 06:57:02;;;;;;;16.27;12.73;;;;;;;16.75;77.47;92847.81;2067683;69;20168;-77
2022/09/01 06:59:33;;;;;;;16.48;12.07;;;;;;;17.18;74.50;92850.22;2067589;69;20160;-74
2022/09/01 07:02:02;;;;;;;14.57;11.98;;;;;;;17.33;75.11;92840.13;2067116;69;20207;-73
2022/09/01 07:04:51;;;;;;;15.65;12.50;;;;;;;16.96;76.31;92847.25;2063753;69;20720;-74
2022/09/01 07:07:17;;;;;;;17.13;13.60;;;;;;;16.92;75.96;92849.19;2067154;69;20235;-76
2022/09/01 07:10:14;;;;;;;14.77;12.05;;;;;;;17.31;74.59;92857.09;2066893;69;20178;-76
2022/09/01 07:12:47;;;;;;;17.45;12.93;;;;;;;17.27;74.34;92859.78;2067670;69;20271;-75
2022/09/01 07:15:16;;;;;;;14.50;12.57;;;;;;;17.65;74.02;92863.38;2064793;69;21044;-76
2022/09/01 07:17:54;;;;;;;15.27;12.60;;;;;;;17.47;74.11;92859.84;2067724;69;20159;-76
2022/09/01 07:20:30;;;;;;;14.20;12.70;;;;;;;17.09;75.07;92861.94;2067703;69;20144;-75
2022/09/01 07:22:57;;;;;;;14.70;12.27;;;;;;;17.15;75.57;92857.22;2065094;69;20148;-78
2022/09/01 07:25:23;;;;;;;13.43;11.48;;;;;;;17.52;73.36;92864.31;2067749;69;20312;-78
2022/09/01 07:27:55;;;;;;;15.40;10.70;;;;;;;17.60;72.52;92867.47;2067852;69;20255;-78
2022/09/01 07:30:21;;;;;;;13.95;11.32;;;;;;;17.60;72.60;92866.75;2067856;69;20144;-75
2022/09/01 07:32:49;;;;;;;14.27;10.52;;;;;;;17.82;71.20;92872.53;2071337;69;20475;-76
2022/09/01 07:35:21;;;;;;;11.88;10.10;;;;;;;17.76;71.48;92861.66;2067646;69;20176;-75
2022/09/01 07:37:49;;;;;;;;;;;;;;;17.45;73.25;92868.28;2067818;69;20164;-76
2022/09/01 07:40:21;;;;;;;12.65;10.23;;;;;;;17.93;71.54;92868.69;2067423;69;20432;-76
2022/09/01 07:43:25;;;;;;;12.02;10.10;;;;;;;18.24;70.13;92870.50;2056745;69;20149;-75
2022/09/01 07:46:11;;;;;;;13.15;10.45;;;;;;;17.69;71.31;92874.94;2056249;69;20629;-75
2022/09/01 07:48:37;;;;;;;13.93;9.35;;;;;;;18.27;69.05;92872.75;2053321;70;20269;-76
2022/09/01 07:51:04;;;;;;;11.27;9.70;;;;;;;18.45;69.12;92871.94;2050572;70;20142;-76
2022/09/01 07:53:33;;;;;;;12.23;9.80;;;;;;;17.99;70.86;92874.59;2050698;70;20171;-75
2022/09/01 07:56:06;;;;;;;12.88;10.52;;;;;;;18.01;70.77;92874.69;2051629;70;20184;-76
2022/09/01 07:58:33;;;;;;;11.40;10.18;;;;;;;18.04;70.07;92865.53;2050641;70;20213;-76
2022/09/01 08:01:10;;;;;;;13.00;10.82;;;;;;;17.58;72.20;92869.50;2050707;70;20210;-76
2022/09/01 08:03:37;;;;;;;12.07;9.82;;;;;;;18.26;70.08;92873.41;2055623;69;20200;-76
2022/09/01 08:06:06;;;;;;;12.55;10.50;;;;;;;18.09;69.74;92874.22;2053373;69;20541;-77
2022/09/01 08:08:34;;;;;;;11.18;9.32;;;;;;;18.28;69.25;92870.66;2053762;69;20289;-77
2022/09/01 08:11:00;;;;;;;12.40;9.23;;;;;;;18.57;68.47;92874.47;2056059;69;20224;-76
2022/09/01 08:13:27;;;;;;;11.25;9.85;;;;;;;17.89;70.44;92872.09;2054009;69;20525;-77
2022/09/01 08:15:53;;;;;;;11.98;9.90;;;;;;;18.01;70.09;92872.56;2053582;69;20165;-77
2022/09/01 08:18:19;;;;;;;10.40;8.60;;;;;;;18.47;68.28;92869.88;2056148;69;20142;-76
2022/09/01 08:20:46;;;;;;;9.07;7.95;;;;;;;18.84;66.83;92876.13;2053945;69;20137;-77
2022/09/01 08:23:30;;;;;;;12.32;9.65;;;;;;;18.78;67.52;92871.69;2063585;69;20768;-76
2022/09/01 08:25:56;;;;;;;10.80;8.00;;;;;;;19.20;65.80;92873.72;2067348;69;20591;-76
2022/09/01 08:28:22;;;;;;;10.32;8.02;;;;;;;19.06;66.02;92874.00;2068019;69;20153;-75
2022/09/01 08:30:47;;;;;;;9.15;7.75;;;;;;;18.89;65.92;92878.44;2067729;69;20151;-74
2022/09/01 08:33:15;;;;;;;8.52;7.22;;;;;;;19.23;64.52;92878.06;2067697;69;20152;-75
2022/09/01 08:35:47;;;;;;;9.10;7.22;;;;;;;19.36;63.67;92870.63;2071390;69;20151;-75
2022/09/01 08:38:16;;;;;;;11.10;7.10;;;;;;;19.28;64.40;92874.69;2067840;69;20188;-75
2022/09/01 08:40:51;;;;;;;8.15;6.78;;;;;;;19.33;63.71;92871.94;2071477;69;20159;-77
2022/09/01 08:44:08;;;;;;;7.20;6.35;;;;;;;19.49;63.58;92875.31;2068090;69;20617;-76
2022/09/01 08:46:38;;;;;;;7.80;7.00;;;;;;;19.62;62.99;92880.03;2051120;70;20208;-77
2022/09/01 08:49:18;;;;;;;7.63;6.80;;;;;;;19.42;62.34;92873.66;2066805;69;20160;-77
2022/09/01 08:52:14;;;;;;;8.70;7.00;;;;;;;19.48;62.59;92880.31;2071443;69;20139;-76
2022/09/01 08:54:52;;;;;;;8.60;6.75;;;;;;;19.54;62.63;92876.91;2068082;69;20343;-76
2022/09/01 08:57:34;;;;;;;7.30;6.30;;;;;;;19.78;61.24;92874.06;2068118;69;20236;-76
2022/09/01 09:00:23;;;;;;;7.63;6.82;;;;;;;19.51;62.10;92873.22;2068651;69;20206;-77
2022/09/01 09:03:26;;;;;;;7.85;6.32;;;;;;;19.35;62.51;92878.47;2068104;69;20164;-76
2022/09/01 09:05:58;;;;;;;;;;;;;;;19.69;62.18;92880.94;2071539;69;20179;-76
2022/09/01 09:08:42;;;;;;;8.75;5.72;;;;;;;19.89;61.09;92872.25;2071563;69;20127;-77
2022/09/01 09:11:40;;;;;;;7.53;5.55;;;;;;;20.02;61.46;92871.16;2071516;69;20243;-77
2022/09/01 09:14:36;;;;;;;7.63;5.68;;;;;;;20.09;61.23;92866.38;2071398;69;20148;-77
2022/09/01 09:17:03;;;;;;;5.70;5.10;;;;;;;19.94;61.69;92874.53;2071392;69;20183;-73
2022/09/01 09:19:42;;;;;;;5.88;5.13;;;;;;;19.72;60.59;92871.03;2071406;69;20245;-75
2022/09/01 09:22:14;;;;;;;5.85;5.20;;;;;;;19.54;61.47;92871.19;2071400;69;20156;-76
2022/09/01 09:24:49;;;;;;;;;;;;;;;19.36;62.07;92871.34;2071588;69;20172;-76
2022/09/01 09:27:22;;;;;;;23.95;16.30;;;;;;;20.01;60.47;92875.44;2071495;69;20049;-76
2022/09/01 09:29:56;;;;;;;10.68;8.55;;;;;;;20.25;59.75;92879.00;2071490;69;20571;-76
2022/09/01 09:32:41;;;;;;;7.47;5.10;;;;;;;20.33;59.26;92877.75;2071676;69;20149;-76
2022/09/01 09:35:30;;;;;;;5.28;4.78;;;;;;;20.23;58.53;92872.47;2071472;69;20190;-76
2022/09/01 09:38:20;;;;;;;5.88;5.03;;;;;;;19.98;59.13;92871.06;2071498;69;20479;-76
2022/09/01 09:41:07;;;;;;;7.47;5.20;;;;;;;20.77;57.51;92869.66;2071562;69;20182;-74
2022/09/01 09:43:37;;;;;;;7.82;5.60;;;;;;;21.05;56.77;92861.78;2071534;69;20133;-76
2022/09/01 09:46:36;;;;;;;5.60;4.82;;;;;;;21.17;56.58;92849.19;2068166;69;20137;-76
2022/09/01 09:49:29;;;;;;;5.80;4.90;;;;;;;21.38;56.64;92859.72;2071641;69;20141;-76
2022/09/01 09:51:56;;;;;;;6.73;4.80;;;;;;;21.26;56.71;92857.28;2071401;69;20131;-76
2022/09/01 09:54:25;;;;;;;5.22;4.60;;;;;;;20.84;55.84;92859.81;2071462;69;20136;-77
2022/09/01 09:57:08;;;;;;;5.50;4.40;;;;;;;20.94;57.43;92851.50;2071439;69;20279;-75
2022/09/01 10:00:08;;;;;;;4.63;4.22;;;;;;;21.69;55.15;92848.94;2071442;69;20137;-76
2022/09/01 10:02:42;;;;;;;4.95;4.40;;;;;;;22.26;54.15;92835.81;2069023;69;20507;-77
2022/09/01 10:05:37;;;;;;;7.25;5.68;;;;;;;22.57;53.93;92837.13;2071402;69;20152;-77
2022/09/01 10:08:08;;;;;;;4.28;3.88;;;;;;;22.65;53.10;92839.41;2071518;69;20151;-78
2022/09/01 10:10:50;;;;;;;5.72;4.65;;;;;;;22.27;53.63;92825.81;2071434;69;20145;-76
2022/09/01 10:13:21;;;;;;;6.55;4.30;;;;;;;22.68;52.50;92824.41;2071235;69;20144;-77
2022/09/01 10:15:56;;;;;;;4.40;4.00;;;;;;;22.95;52.24;92828.47;2071382;69;20494;-76
2022/09/01 10:18:43;;;;;;;4.03;3.63;;;;;;;22.25;51.40;92820.03;2071417;69;20336;-76
2022/09/01 10:21:17;;;;;;;3.75;3.35;;;;;;;22.06;52.86;92830.38;2067819;69;20148;-77
2022/09/01 10:23:43;;;;;;;3.75;3.42;;;;;;;21.75;52.94;92829.00;2071467;69;20189;-75
2022/09/01 10:26:12;;;;;;;5.65;3.90;;;;;;;22.29;51.61;92820.81;2071298;69;20195;-76
2022/09/01 10:28:46;;;;;;;4.55;3.60;;;;;;;22.72;51.00;92818.00;2071277;69;20213;-77
2022/09/01 10:31:13;;;;;;;3.72;3.25;;;;;;;22.82;50.57;92815.31;2071260;69;20137;-75
2022/09/01 10:33:39;;;;;;;3.50;3.20;;;;;;;22.24;51.77;92810.69;2071375;69;20175;-77
2022/09/01 10:36:06;;;;;;;4.72;3.38;;;;;;;22.08;50.29;92813.19;2071136;69;20510;-77
2022/09/01 10:38:31;;;;;;;3.72;3.25;;;;;;;22.47;50.79;92820.44;2071191;69;20572;-77
2022/09/01 10:41:09;;;;;;;4.28;3.70;;;;;;;22.48;51.71;92815.44;2067980;69;20152;-76
2022/09/01 10:43:46;;;;;;;3.70;3.30;;;;;;;22.65;50.86;92810.72;2071442;69;20150;-73
2022/09/01 10:46:20;;;;;;;4.25;3.17;;;;;;;22.34;51.30;92810.16;2071403;69;20235;-75
2022/09/01 10:48:51;;;;;;;4.13;3.72;;;;;;;21.93;51.47;92811.47;2071242;69;20254;-76
2022/09/01 10:51:17;;;;;;;6.53;3.55;;;;;;;22.19;51.11;92800.56;2071295;69;20196;-75
2022/09/01 10:53:47;;;;;;;3.67;3.28;;;;;;;22.41;50.68;92811.72;2071160;69;20158;-76
2022/09/01 10:56:23;;;;;;;3.85;3.35;;;;;;;22.21;51.01;92802.72;2067889;69;20514;-76
2022/09/01 10:59:10;;;;;;;4.18;3.30;;;;;;;21.70;51.86;92807.41;2067949;69;20148;-77
2022/09/01 11:01:42;;;;;;;3.47;3.17;;;;;;;21.35;52.32;92803.06;2068053;69;20325;-76
2022/09/01 11:04:16;;;;;;;3.50;3.20;;;;;;;21.39;52.31;92812.47;2071528;69;20128;-76
2022/09/01 11:07:00;;;;;;;3.55;3.10;;;;;;;21.68;52.26;92807.38;2071164;69;20144;-77
2022/09/01 11:10:06;;;;;;;3.30;3.00;;;;;;;21.39;52.32;92801.03;2067969;69;20132;-76
2022/09/01 11:13:09;;;;;;;3.60;3.17;;;;;;;22.07;51.01;92794.56;2071444;69;20160;-76
2022/09/01 11:15:41;;;;;;;5.20;3.15;;;;;;;21.94;51.32;92795.72;2071136;69;20152;-77
2022/09/01 11:18:36;;;;;;;3.70;3.10;;;;;;;22.29;51.15;92803.63;2071246;69;20144;-76
2022/09/01 11:21:26;;;;;;;3.65;3.35;;;;;;;22.19;50.59;92803.44;2062023;69;20160;-73
2022/09/01 11:24:31;;;;;;;4.00;3.40;;;;;;;22.25;50.89;92797.81;2071235;69;20145;-73
2022/09/01 11:26:58;;;;;;;4.15;3.05;;;;;;;22.25;51.01;92797.81;2064637;69;20148;-73
2022/09/01 11:29:54;;;;;;;5.03;3.40;;;;;;;22.04;51.00;92793.81;2071323;69;20162;-76
2022/09/01 11:32:31;;;;;;;4.28;3.40;;;;;;;21.88;51.14;92793.47;2071347;69;20256;-76
2022/09/01 11:35:01;;;;;;;3.22;2.90;;;;;;;22.16;51.65;92798.34;2071135;69;20144;-74
2022/09/01 11:37:27;;;;;;;3.50;2.95;;;;;;;22.41;50.69;92794.53;2067925;69;20160;-73
2022/09/01 11:40:00;;;;;;;2.60;2.40;;;;;;;22.17;51.07;92791.91;2071291;69;20188;-75
2022/09/01 11:42:34;;;;;;;2.58;2.30;;;;;;;22.57;49.83;92789.06;2071232;69;20148;-75
2022/09/01 11:45:17;;;;;;;3.53;2.17;;;;;;;22.63;48.81;92787.72;2071193;69;20171;-74
2022/09/01 11:47:45;;;;;;;1.77;1.67;;;;;;;22.99;47.67;92781.88;2071047;69;20168;-75
2022/09/01 11:50:41;;;;;;;2.30;2.10;;;;;;;22.16;47.49;92781.84;2071148;69;20164;-75
2022/09/01 11:53:09;;;;;;;3.03;2.33;;;;;;;22.73;46.98;92780.03;2053561;70;20189;-74
2022/09/01 11:55:46;;;;;;;2.88;2.00;;;;;;;23.46;45.58;92777.59;2053701;70;20571;-76